sensor_id;sensor_type;location;lat;lon;timestamp;temperature;humidity
49327;DHT22;35819;44.498;0.166;2022-10-17T00:01:10;20.70;99.90
49327;DHT22;35819;44.498;0.166;2022-10-17T00:03:38;20.70;99.90
49327;DHT22;35819;44.498;0.166;2022-10-17T00:06:06;20.80;99.90
49327;DHT22;35819;44.498;0.166;2022-10-17T00:08:32;20.70;99.90
49327;DHT22;35819;44.498;0.166;2022-10-17T00:11:00;20.70;99.90
49327;DHT22;35819;44.498;0.166;2022-10-17T00:13:26;20.70;99.90
49327;DHT22;35819;44.498;0.166;2022-10-17T00:15:52;20.70;99.90
49327;DHT22;35819;44.498;0.166;2022-10-17T00:18:18;20.70;99.90
49327;DHT22;35819;44.498;0.166;2022-10-17T00:20:44;20.70;99.90
49327;DHT22;35819;44.498;0.166;2022-10-17T00:23:10;20.70;99.90
49327;DHT22;35819;44.498;0.166;2022-10-17T00:25:35;20.70;99.90
49327;DHT22;35819;44.498;0.166;2022-10-17T00:28:02;20.60;99.90
49327;DHT22;35819;44.498;0.166;2022-10-17T00:30:28;20.60;99.90
49327;DHT22;35819;44.498;0.166;2022-10-17T00:32:55;20.60;99.90
49327;DHT22;35819;44.498;0.166;2022-10-17T00:35:21;20.60;99.90
49327;DHT22;35819;44.498;0.166;2022-10-17T00:37:46;20.50;99.90
49327;DHT22;35819;44.498;0.166;2022-10-17T00:40:12;20.50;99.90
49327;DHT22;35819;44.498;0.166;2022-10-17T00:42:38;20.50;99.90
49327;DHT22;35819;44.498;0.166;2022-10-17T00:45:26;20.50;99.90
49327;DHT22;35819;44.498;0.166;2022-10-17T00:47:57;20.50;99.90
49327;DHT22;35819;44.498;0.166;2022-10-17T00:50:24;20.50;99.90
49327;DHT22;35819;44.498;0.166;2022-10-17T00:52:51;20.50;99.90
49327;DHT22;35819;44.498;0.166;2022-10-17T00:55:22;20.50;99.90
49327;DHT22;35819;44.498;0.166;2022-10-17T00:57:49;20.40;99.90
49327;DHT22;35819;44.498;0.166;2022-10-17T01:00:16;20.50;99.90
49327;DHT22;35819;44.498;0.166;2022-10-17T01:02:42;20.40;99.90
49327;DHT22;35819;44.498;0.166;2022-10-17T01:05:09;20.40;99.90
49327;DHT22;35819;44.498;0.166;2022-10-17T01:07:35;20.40;99.90
49327;DHT22;35819;44.498;0.166;2022-10-17T01:10:05;20.40;99.90
49327;DHT22;35819;44.498;0.166;2022-10-17T01:15:16;20.40;99.90
49327;DHT22;35819;44.498;0.166;2022-10-17T01:34:56;20.40;99.90
49327;DHT22;35819;44.498;0.166;2022-10-17T01:37:44;20.40;99.90
49327;DHT22;35819;44.498;0.166;2022-10-17T01:40:24;20.40;99.90
49327;DHT22;35819;44.498;0.166;2022-10-17T01:42:58;20.40;99.90
49327;DHT22;35819;44.498;0.166;2022-10-17T01:45:51;20.40;99.90
49327;DHT22;35819;44.498;0.166;2022-10-17T01:48:27;20.40;99.90
49327;DHT22;35819;44.498;0.166;2022-10-17T01:51:00;20.40;99.90
49327;DHT22;35819;44.498;0.166;2022-10-17T01:53:38;20.40;99.90
49327;DHT22;35819;44.498;0.166;2022-10-17T01:56:07;20.50;99.90
49327;DHT22;35819;44.498;0.166;2022-10-17T01:58:42;20.40;99.90
49327;DHT22;35819;44.498;0.166;2022-10-17T02:01:11;20.40;99.90
49327;DHT22;35819;44.498;0.166;2022-10-17T02:03:39;20.40;99.90
49327;DHT22;35819;44.498;0.166;2022-10-17T02:06:05;20.40;99.90
49327;DHT22;35819;44.498;0.166;2022-10-17T02:08:48;20.40;99.90
49327;DHT22;35819;44.498;0.166;2022-10-17T02:11:20;20.40;99.90
49327;DHT22;35819;44.498;0.166;2022-10-17T02:19:32;20.40;99.90
49327;DHT22;35819;44.498;0.166;2022-10-17T02:22:15;20.40;99.90
49327;DHT22;35819;44.498;0.166;2022-10-17T02:24:51;20.30;99.90
49327;DHT22;35819;44.498;0.166;2022-10-17T02:30:11;20.20;99.90
49327;DHT22;35819;44.498;0.166;2022-10-17T02:32:46;20.20;99.90
49327;DHT22;35819;44.498;0.166;2022-10-17T02:35:15;20.10;99.90
49327;DHT22;35819;44.498;0.166;2022-10-17T02:37:43;20.00;99.90
49327;DHT22;35819;44.498;0.166;2022-10-17T02:40:12;19.90;99.90
49327;DHT22;35819;44.498;0.166;2022-10-17T02:42:40;19.90;99.90
49327;DHT22;35819;44.498;0.166;2022-10-17T02:45:08;19.80;99.90
49327;DHT22;35819;44.498;0.166;2022-10-17T02:47:41;19.80;99.90
49327;DHT22;35819;44.498;0.166;2022-10-17T02:50:10;19.80;99.90
49327;DHT22;35819;44.498;0.166;2022-10-17T02:52:55;19.80;99.90
49327;DHT22;35819;44.498;0.166;2022-10-17T02:55:29;19.80;99.90
49327;DHT22;35819;44.498;0.166;2022-10-17T02:57:59;19.80;99.90
49327;DHT22;35819;44.498;0.166;2022-10-17T03:00:28;19.80;99.90
49327;DHT22;35819;44.498;0.166;2022-10-17T03:02:54;19.80;99.90
49327;DHT22;35819;44.498;0.166;2022-10-17T03:05:25;19.80;99.90
49327;DHT22;35819;44.498;0.166;2022-10-17T03:07:52;19.80;99.90
49327;DHT22;35819;44.498;0.166;2022-10-17T03:10:19;19.80;99.90
49327;DHT22;35819;44.498;0.166;2022-10-17T03:12:45;19.70;99.90
49327;DHT22;35819;44.498;0.166;2022-10-17T03:15:11;19.60;99.90
49327;DHT22;35819;44.498;0.166;2022-10-17T03:17:37;19.60;99.90
49327;DHT22;35819;44.498;0.166;2022-10-17T03:20:04;19.50;99.90
49327;DHT22;35819;44.498;0.166;2022-10-17T03:22:30;19.50;99.90
49327;DHT22;35819;44.498;0.166;2022-10-17T03:24:56;19.60;99.90
49327;DHT22;35819;44.498;0.166;2022-10-17T03:27:22;19.60;99.90
49327;DHT22;35819;44.498;0.166;2022-10-17T03:29:47;19.60;99.90
49327;DHT22;35819;44.498;0.166;2022-10-17T03:32:13;19.50;99.90
49327;DHT22;35819;44.498;0.166;2022-10-17T03:34:39;19.50;99.90
49327;DHT22;35819;44.498;0.166;2022-10-17T03:37:04;19.60;99.90
49327;DHT22;35819;44.498;0.166;2022-10-17T03:39:30;19.60;99.90
49327;DHT22;35819;44.498;0.166;2022-10-17T03:41:56;19.60;99.90
49327;DHT22;35819;44.498;0.166;2022-10-17T03:44:22;19.50;99.90
49327;DHT22;35819;44.498;0.166;2022-10-17T03:46:47;19.50;99.90
49327;DHT22;35819;44.498;0.166;2022-10-17T03:49:13;19.50;99.90
49327;DHT22;35819;44.498;0.166;2022-10-17T03:51:39;19.40;99.90
49327;DHT22;35819;44.498;0.166;2022-10-17T03:54:04;19.40;99.90
49327;DHT22;35819;44.498;0.166;2022-10-17T03:56:30;19.40;99.90
49327;DHT22;35819;44.498;0.166;2022-10-17T03:58:56;19.30;99.90
49327;DHT22;35819;44.498;0.166;2022-10-17T04:01:22;19.40;99.90
49327;DHT22;35819;44.498;0.166;2022-10-17T04:03:52;19.40;99.90
49327;DHT22;35819;44.498;0.166;2022-10-17T04:06:18;19.40;99.90
49327;DHT22;35819;44.498;0.166;2022-10-17T04:08:45;19.40;99.90
49327;DHT22;35819;44.498;0.166;2022-10-17T04:11:15;19.40;99.90
49327;DHT22;35819;44.498;0.166;2022-10-17T04:13:41;19.50;99.90
49327;DHT22;35819;44.498;0.166;2022-10-17T04:16:11;19.50;99.90
49327;DHT22;35819;44.498;0.166;2022-10-17T04:18:37;19.50;99.90
49327;DHT22;35819;44.498;0.166;2022-10-17T04:21:04;19.50;99.90
49327;DHT22;35819;44.498;0.166;2022-10-17T04:23:30;19.50;99.90
49327;DHT22;35819;44.498;0.166;2022-10-17T04:25:58;19.60;99.90
49327;DHT22;35819;44.498;0.166;2022-10-17T04:28:25;19.60;99.90
49327;DHT22;35819;44.498;0.166;2022-10-17T04:31:01;19.60;99.90
49327;DHT22;35819;44.498;0.166;2022-10-17T04:33:27;19.60;99.90
49327;DHT22;35819;44.498;0.166;2022-10-17T04:35:57;19.70;99.90
49327;DHT22;35819;44.498;0.166;2022-10-17T04:38:23;19.70;99.90
49327;DHT22;35819;44.498;0.166;2022-10-17T04:40:49;19.70;99.90
49327;DHT22;35819;44.498;0.166;2022-10-17T04:43:15;19.70;99.90
49327;DHT22;35819;44.498;0.166;2022-10-17T04:45:40;19.70;99.90
49327;DHT22;35819;44.498;0.166;2022-10-17T04:48:06;19.70;99.90
49327;DHT22;35819;44.498;0.166;2022-10-17T04:50:32;19.70;99.90
49327;DHT22;35819;44.498;0.166;2022-10-17T04:52:58;19.70;99.90
49327;DHT22;35819;44.498;0.166;2022-10-17T04:55:24;19.60;99.90
49327;DHT22;35819;44.498;0.166;2022-10-17T04:57:50;19.70;99.90
49327;DHT22;35819;44.498;0.166;2022-10-17T05:00:15;19.60;99.90
49327;DHT22;35819;44.498;0.166;2022-10-17T05:02:41;19.60;99.90
49327;DHT22;35819;44.498;0.166;2022-10-17T05:05:07;19.60;99.90
49327;DHT22;35819;44.498;0.166;2022-10-17T05:07:33;19.60;99.90
49327;DHT22;35819;44.498;0.166;2022-10-17T05:09:58;19.60;99.90
49327;DHT22;35819;44.498;0.166;2022-10-17T05:12:24;19.60;99.90
49327;DHT22;35819;44.498;0.166;2022-10-17T05:14:50;19.60;99.90
49327;DHT22;35819;44.498;0.166;2022-10-17T05:17:16;19.60;99.90
49327;DHT22;35819;44.498;0.166;2022-10-17T05:19:42;19.60;99.90
49327;DHT22;35819;44.498;0.166;2022-10-17T05:22:11;19.60;99.90
49327;DHT22;35819;44.498;0.166;2022-10-17T05:24:36;19.60;99.90
49327;DHT22;35819;44.498;0.166;2022-10-17T05:27:02;19.60;99.90
49327;DHT22;35819;44.498;0.166;2022-10-17T05:29:28;19.70;99.90
49327;DHT22;35819;44.498;0.166;2022-10-17T05:31:54;19.70;99.90
49327;DHT22;35819;44.498;0.166;2022-10-17T05:34:20;19.70;99.90
49327;DHT22;35819;44.498;0.166;2022-10-17T05:36:45;19.70;99.90
49327;DHT22;35819;44.498;0.166;2022-10-17T05:39:12;19.70;99.90
49327;DHT22;35819;44.498;0.166;2022-10-17T05:41:39;19.70;99.90
49327;DHT22;35819;44.498;0.166;2022-10-17T05:44:05;19.70;99.90
49327;DHT22;35819;44.498;0.166;2022-10-17T05:46:30;19.70;99.90
49327;DHT22;35819;44.498;0.166;2022-10-17T05:48:56;19.70;99.90
49327;DHT22;35819;44.498;0.166;2022-10-17T05:51:22;19.60;99.90
49327;DHT22;35819;44.498;0.166;2022-10-17T05:53:47;19.60;99.90
49327;DHT22;35819;44.498;0.166;2022-10-17T05:56:13;19.50;99.90
49327;DHT22;35819;44.498;0.166;2022-10-17T05:58:41;19.50;99.90
49327;DHT22;35819;44.498;0.166;2022-10-17T06:01:17;19.40;99.90
49327;DHT22;35819;44.498;0.166;2022-10-17T06:03:52;19.40;99.90
49327;DHT22;35819;44.498;0.166;2022-10-17T06:06:19;19.30;99.90
49327;DHT22;35819;44.498;0.166;2022-10-17T06:08:59;19.30;99.90
49327;DHT22;35819;44.498;0.166;2022-10-17T06:15:10;19.30;99.90
49327;DHT22;35819;44.498;0.166;2022-10-17T06:17:44;19.20;99.90
49327;DHT22;35819;44.498;0.166;2022-10-17T06:20:10;19.20;99.90
49327;DHT22;35819;44.498;0.166;2022-10-17T06:22:39;19.20;99.90
49327;DHT22;35819;44.498;0.166;2022-10-17T06:25:07;19.30;99.90
49327;DHT22;35819;44.498;0.166;2022-10-17T06:27:33;19.30;99.90
49327;DHT22;35819;44.498;0.166;2022-10-17T06:29:59;19.30;99.90
49327;DHT22;35819;44.498;0.166;2022-10-17T06:32:28;19.40;99.90
49327;DHT22;35819;44.498;0.166;2022-10-17T06:35:22;19.40;99.90
49327;DHT22;35819;44.498;0.166;2022-10-17T06:38:07;19.40;99.90
49327;DHT22;35819;44.498;0.166;2022-10-17T06:40:35;19.40;99.90
49327;DHT22;35819;44.498;0.166;2022-10-17T06:43:07;19.40;99.90
49327;DHT22;35819;44.498;0.166;2022-10-17T06:45:38;19.40;99.90
49327;DHT22;35819;44.498;0.166;2022-10-17T06:48:18;19.50;99.90
49327;DHT22;35819;44.498;0.166;2022-10-17T06:50:49;19.50;99.90
49327;DHT22;35819;44.498;0.166;2022-10-17T06:53:18;19.50;99.90
49327;DHT22;35819;44.498;0.166;2022-10-17T06:56:04;19.50;99.90
49327;DHT22;35819;44.498;0.166;2022-10-17T06:58:33;19.50;99.90
49327;DHT22;35819;44.498;0.166;2022-10-17T07:04:07;19.70;99.90
49327;DHT22;35819;44.498;0.166;2022-10-17T07:06:34;19.70;99.90
49327;DHT22;35819;44.498;0.166;2022-10-17T07:19:19;20.00;99.90
49327;DHT22;35819;44.498;0.166;2022-10-17T07:21:47;20.00;99.90
49327;DHT22;35819;44.498;0.166;2022-10-17T07:24:14;20.00;99.90
49327;DHT22;35819;44.498;0.166;2022-10-17T07:31:55;20.00;99.90
49327;DHT22;35819;44.498;0.166;2022-10-17T07:34:22;20.00;99.90
49327;DHT22;35819;44.498;0.166;2022-10-17T07:37:11;20.10;99.90
49327;DHT22;35819;44.498;0.166;2022-10-17T07:39:44;20.10;99.90
49327;DHT22;35819;44.498;0.166;2022-10-17T07:42:10;20.20;99.90
49327;DHT22;35819;44.498;0.166;2022-10-17T07:44:38;20.20;99.90
49327;DHT22;35819;44.498;0.166;2022-10-17T07:47:05;20.20;99.90
49327;DHT22;35819;44.498;0.166;2022-10-17T07:49:31;20.20;99.90
49327;DHT22;35819;44.498;0.166;2022-10-17T07:52:00;20.20;99.90
49327;DHT22;35819;44.498;0.166;2022-10-17T07:54:26;20.30;99.90
49327;DHT22;35819;44.498;0.166;2022-10-17T07:56:52;20.20;99.90
49327;DHT22;35819;44.498;0.166;2022-10-17T07:59:18;20.20;99.90
49327;DHT22;35819;44.498;0.166;2022-10-17T08:01:44;20.20;99.90
49327;DHT22;35819;44.498;0.166;2022-10-17T08:04:38;20.20;99.90
49327;DHT22;35819;44.498;0.166;2022-10-17T08:14:59;20.30;99.90
49327;DHT22;35819;44.498;0.166;2022-10-17T08:17:54;20.40;99.90
49327;DHT22;35819;44.498;0.166;2022-10-17T08:28:42;20.50;99.90
49327;DHT22;35819;44.498;0.166;2022-10-17T08:46:20;20.60;99.90
49327;DHT22;35819;44.498;0.166;2022-10-17T08:48:52;20.80;99.90
49327;DHT22;35819;44.498;0.166;2022-10-17T08:51:31;20.80;99.90
49327;DHT22;35819;44.498;0.166;2022-10-17T08:54:30;20.80;99.90
49327;DHT22;35819;44.498;0.166;2022-10-17T08:56:59;21.00;99.90
49327;DHT22;35819;44.498;0.166;2022-10-17T09:16:13;21.20;99.90
49327;DHT22;35819;44.498;0.166;2022-10-17T09:27:05;21.20;99.90
49327;DHT22;35819;44.498;0.166;2022-10-17T09:29:45;21.20;99.90
49327;DHT22;35819;44.498;0.166;2022-10-17T09:32:17;21.20;99.90
49327;DHT22;35819;44.498;0.166;2022-10-17T09:39:56;21.20;99.90
49327;DHT22;35819;44.498;0.166;2022-10-17T09:42:37;21.30;99.90
49327;DHT22;35819;44.498;0.166;2022-10-17T09:45:15;21.50;99.90
49327;DHT22;35819;44.498;0.166;2022-10-17T09:47:49;21.70;99.90
49327;DHT22;35819;44.498;0.166;2022-10-17T09:50:39;22.00;99.90
49327;DHT22;35819;44.498;0.166;2022-10-17T09:58:25;23.50;99.90
49327;DHT22;35819;44.498;0.166;2022-10-17T10:01:20;24.20;99.90
49327;DHT22;35819;44.498;0.166;2022-10-17T10:07:08;24.70;99.90
49327;DHT22;35819;44.498;0.166;2022-10-17T10:10:06;25.00;99.90
49327;DHT22;35819;44.498;0.166;2022-10-17T10:41:09;25.50;99.90
49327;DHT22;35819;44.498;0.166;2022-10-17T10:43:37;25.40;99.90
49327;DHT22;35819;44.498;0.166;2022-10-17T10:46:16;25.30;99.90
49327;DHT22;35819;44.498;0.166;2022-10-17T10:51:17;25.10;99.90
49327;DHT22;35819;44.498;0.166;2022-10-17T10:56:21;24.80;99.90
49327;DHT22;35819;44.498;0.166;2022-10-17T11:01:49;24.60;99.90
49327;DHT22;35819;44.498;0.166;2022-10-17T11:04:26;24.30;99.90
49327;DHT22;35819;44.498;0.166;2022-10-17T11:07:10;24.00;99.90
49327;DHT22;35819;44.498;0.166;2022-10-17T11:09:58;23.70;99.90
49327;DHT22;35819;44.498;0.166;2022-10-17T11:12:39;23.60;99.90
49327;DHT22;35819;44.498;0.166;2022-10-17T11:16:09;23.70;99.90
49327;DHT22;35819;44.498;0.166;2022-10-17T11:19:07;23.70;99.90
49327;DHT22;35819;44.498;0.166;2022-10-17T11:24:33;23.90;99.90
49327;DHT22;35819;44.498;0.166;2022-10-17T11:27:13;24.00;99.90
49327;DHT22;35819;44.498;0.166;2022-10-17T11:29:40;24.10;99.90
49327;DHT22;35819;44.498;0.166;2022-10-17T11:32:38;24.20;99.90
49327;DHT22;35819;44.498;0.166;2022-10-17T11:35:32;24.20;99.90
49327;DHT22;35819;44.498;0.166;2022-10-17T11:38:21;24.20;99.90
49327;DHT22;35819;44.498;0.166;2022-10-17T11:40:59;24.20;99.90
49327;DHT22;35819;44.498;0.166;2022-10-17T11:43:30;24.20;99.90
49327;DHT22;35819;44.498;0.166;2022-10-17T11:46:04;24.20;99.90
49327;DHT22;35819;44.498;0.166;2022-10-17T11:48:38;24.40;99.90
49327;DHT22;35819;44.498;0.166;2022-10-17T11:51:09;24.70;99.90
49327;DHT22;35819;44.498;0.166;2022-10-17T11:53:56;25.20;99.90
49327;DHT22;35819;44.498;0.166;2022-10-17T11:56:33;26.20;99.90
49327;DHT22;35819;44.498;0.166;2022-10-17T12:01:48;28.10;98.00
49327;DHT22;35819;44.498;0.166;2022-10-17T12:07:21;31.90;92.00
49327;DHT22;35819;44.498;0.166;2022-10-17T12:12:27;33.10;84.90
49327;DHT22;35819;44.498;0.166;2022-10-17T12:14:59;33.00;83.50
49327;DHT22;35819;44.498;0.166;2022-10-17T12:17:46;32.70;82.40
49327;DHT22;35819;44.498;0.166;2022-10-17T12:25:34;33.80;79.50
49327;DHT22;35819;44.498;0.166;2022-10-17T12:33:54;35.90;71.10
49327;DHT22;35819;44.498;0.166;2022-10-17T12:49:50;39.50;62.30
49327;DHT22;35819;44.498;0.166;2022-10-17T12:55:05;38.80;60.20
49327;DHT22;35819;44.498;0.166;2022-10-17T13:00:19;38.10;59.80
49327;DHT22;35819;44.498;0.166;2022-10-17T13:02:47;38.10;59.90
49327;DHT22;35819;44.498;0.166;2022-10-17T13:05:18;38.00;59.70
49327;DHT22;35819;44.498;0.166;2022-10-17T13:07:49;38.10;59.60
49327;DHT22;35819;44.498;0.166;2022-10-17T13:10:23;38.40;59.10
49327;DHT22;35819;44.498;0.166;2022-10-17T13:15:51;39.20;57.30
49327;DHT22;35819;44.498;0.166;2022-10-17T13:18:25;38.80;56.90
49327;DHT22;35819;44.498;0.166;2022-10-17T13:21:13;38.50;57.40
49327;DHT22;35819;44.498;0.166;2022-10-17T13:23:50;38.70;57.50
49327;DHT22;35819;44.498;0.166;2022-10-17T13:26:26;39.30;56.50
49327;DHT22;35819;44.498;0.166;2022-10-17T13:29:09;39.60;55.40
49327;DHT22;35819;44.498;0.166;2022-10-17T13:32:08;39.70;55.30
49327;DHT22;35819;44.498;0.166;2022-10-17T13:34:37;40.10;54.50
49327;DHT22;35819;44.498;0.166;2022-10-17T13:37:14;40.10;54.00
49327;DHT22;35819;44.498;0.166;2022-10-17T13:39:45;39.00;54.70
49327;DHT22;35819;44.498;0.166;2022-10-17T13:42:35;37.60;56.80
49327;DHT22;35819;44.498;0.166;2022-10-17T13:45:15;37.70;56.90
49327;DHT22;35819;44.498;0.166;2022-10-17T13:47:42;38.40;56.10
49327;DHT22;35819;44.498;0.166;2022-10-17T13:50:22;39.10;55.30
49327;DHT22;35819;44.498;0.166;2022-10-17T13:53:35;39.50;54.50
49327;DHT22;35819;44.498;0.166;2022-10-17T13:56:20;40.10;53.10
49327;DHT22;35819;44.498;0.166;2022-10-17T13:58:52;40.00;52.90
49327;DHT22;35819;44.498;0.166;2022-10-17T14:01:22;40.00;53.30
49327;DHT22;35819;44.498;0.166;2022-10-17T14:03:48;40.40;52.60
49327;DHT22;35819;44.498;0.166;2022-10-17T14:06:28;40.70;52.00
49327;DHT22;35819;44.498;0.166;2022-10-17T14:09:00;40.10;52.60
49327;DHT22;35819;44.498;0.166;2022-10-17T14:11:39;38.70;53.80
49327;DHT22;35819;44.498;0.166;2022-10-17T14:14:07;37.10;56.10
49327;DHT22;35819;44.498;0.166;2022-10-17T14:16:41;35.90;57.70
49327;DHT22;35819;44.498;0.166;2022-10-17T14:19:30;35.20;58.70
49327;DHT22;35819;44.498;0.166;2022-10-17T14:22:24;35.00;59.20
49327;DHT22;35819;44.498;0.166;2022-10-17T14:24:53;35.30;58.70
49327;DHT22;35819;44.498;0.166;2022-10-17T14:30:03;36.10;57.40
49327;DHT22;35819;44.498;0.166;2022-10-17T14:32:35;36.70;56.80
49327;DHT22;35819;44.498;0.166;2022-10-17T14:35:04;37.10;56.40
49327;DHT22;35819;44.498;0.166;2022-10-17T14:37:43;37.50;55.80
49327;DHT22;35819;44.498;0.166;2022-10-17T14:40:19;37.10;56.00
49327;DHT22;35819;44.498;0.166;2022-10-17T14:42:46;36.00;57.00
49327;DHT22;35819;44.498;0.166;2022-10-17T14:45:16;35.20;57.90
49327;DHT22;35819;44.498;0.166;2022-10-17T14:47:48;34.60;59.00
49327;DHT22;35819;44.498;0.166;2022-10-17T14:52:40;32.60;62.00
49327;DHT22;35819;44.498;0.166;2022-10-17T14:55:38;31.90;63.40
49327;DHT22;35819;44.498;0.166;2022-10-17T14:58:27;31.50;64.40
49327;DHT22;35819;44.498;0.166;2022-10-17T15:00:54;31.10;65.30
49327;DHT22;35819;44.498;0.166;2022-10-17T15:03:20;30.70;66.30
49327;DHT22;35819;44.498;0.166;2022-10-17T15:05:47;30.20;67.30
49327;DHT22;35819;44.498;0.166;2022-10-17T15:08:16;30.00;68.10
49327;DHT22;35819;44.498;0.166;2022-10-17T15:10:43;29.80;68.60
49327;DHT22;35819;44.498;0.166;2022-10-17T15:13:10;30.60;67.80
49327;DHT22;35819;44.498;0.166;2022-10-17T15:15:37;31.80;65.60
49327;DHT22;35819;44.498;0.166;2022-10-17T15:18:04;32.90;63.80
49327;DHT22;35819;44.498;0.166;2022-10-17T15:20:29;33.70;61.90
49327;DHT22;35819;44.498;0.166;2022-10-17T15:22:58;34.10;61.40
49327;DHT22;35819;44.498;0.166;2022-10-17T15:25:25;34.30;60.90
49327;DHT22;35819;44.498;0.166;2022-10-17T15:27:52;34.60;60.50
49327;DHT22;35819;44.498;0.166;2022-10-17T15:30:22;34.80;59.90
49327;DHT22;35819;44.498;0.166;2022-10-17T15:32:48;34.70;60.20
49327;DHT22;35819;44.498;0.166;2022-10-17T15:35:16;34.60;59.70
49327;DHT22;35819;44.498;0.166;2022-10-17T15:37:43;34.40;60.30
49327;DHT22;35819;44.498;0.166;2022-10-17T15:40:20;34.20;60.60
49327;DHT22;35819;44.498;0.166;2022-10-17T15:42:46;34.20;60.80
49327;DHT22;35819;44.498;0.166;2022-10-17T15:45:14;34.10;61.00
49327;DHT22;35819;44.498;0.166;2022-10-17T15:47:42;33.70;61.00
49327;DHT22;35819;44.498;0.166;2022-10-17T15:50:15;33.20;61.90
49327;DHT22;35819;44.498;0.166;2022-10-17T15:52:41;32.20;63.20
49327;DHT22;35819;44.498;0.166;2022-10-17T15:55:09;31.30;65.00
49327;DHT22;35819;44.498;0.166;2022-10-17T15:57:39;30.30;66.80
49327;DHT22;35819;44.498;0.166;2022-10-17T16:00:13;29.60;67.90
49327;DHT22;35819;44.498;0.166;2022-10-17T16:02:39;29.10;69.10
49327;DHT22;35819;44.498;0.166;2022-10-17T16:05:14;28.70;70.30
49327;DHT22;35819;44.498;0.166;2022-10-17T16:07:41;28.30;71.20
49327;DHT22;35819;44.498;0.166;2022-10-17T16:10:12;27.90;71.90
49327;DHT22;35819;44.498;0.166;2022-10-17T16:12:38;27.60;72.70
49327;DHT22;35819;44.498;0.166;2022-10-17T16:15:13;27.40;73.40
49327;DHT22;35819;44.498;0.166;2022-10-17T16:17:39;27.20;74.30
49327;DHT22;35819;44.498;0.166;2022-10-17T16:20:06;27.00;75.00
49327;DHT22;35819;44.498;0.166;2022-10-17T16:22:33;26.80;75.60
49327;DHT22;35819;44.498;0.166;2022-10-17T16:25:04;26.60;76.10
49327;DHT22;35819;44.498;0.166;2022-10-17T16:27:36;26.50;76.80
49327;DHT22;35819;44.498;0.166;2022-10-17T16:30:04;26.40;77.40
49327;DHT22;35819;44.498;0.166;2022-10-17T16:32:32;26.30;78.20
49327;DHT22;35819;44.498;0.166;2022-10-17T16:34:58;26.10;78.70
49327;DHT22;35819;44.498;0.166;2022-10-17T16:37:25;26.10;79.30
49327;DHT22;35819;44.498;0.166;2022-10-17T16:39:51;26.00;79.70
49327;DHT22;35819;44.498;0.166;2022-10-17T16:42:19;25.90;80.20
49327;DHT22;35819;44.498;0.166;2022-10-17T16:44:46;25.80;80.60
49327;DHT22;35819;44.498;0.166;2022-10-17T16:47:12;25.70;81.10
49327;DHT22;35819;44.498;0.166;2022-10-17T16:49:37;25.60;81.30
49327;DHT22;35819;44.498;0.166;2022-10-17T16:52:04;25.50;81.60
49327;DHT22;35819;44.498;0.166;2022-10-17T16:54:30;25.50;81.90
49327;DHT22;35819;44.498;0.166;2022-10-17T16:56:55;25.40;82.20
49327;DHT22;35819;44.498;0.166;2022-10-17T16:59:24;25.40;82.50
49327;DHT22;35819;44.498;0.166;2022-10-17T17:01:50;25.20;83.10
49327;DHT22;35819;44.498;0.166;2022-10-17T17:04:16;25.20;83.50
49327;DHT22;35819;44.498;0.166;2022-10-17T17:06:41;25.10;83.90
49327;DHT22;35819;44.498;0.166;2022-10-17T17:09:08;25.00;84.40
49327;DHT22;35819;44.498;0.166;2022-10-17T17:11:35;25.00;85.00
49327;DHT22;35819;44.498;0.166;2022-10-17T17:14:03;24.90;85.40
49327;DHT22;35819;44.498;0.166;2022-10-17T17:16:30;24.90;86.00
49327;DHT22;35819;44.498;0.166;2022-10-17T17:18:58;24.80;86.40
49327;DHT22;35819;44.498;0.166;2022-10-17T17:21:25;24.80;86.80
49327;DHT22;35819;44.498;0.166;2022-10-17T17:23:52;24.80;87.20
49327;DHT22;35819;44.498;0.166;2022-10-17T17:26:21;24.70;87.50
49327;DHT22;35819;44.498;0.166;2022-10-17T17:28:48;24.70;87.80
49327;DHT22;35819;44.498;0.166;2022-10-17T17:31:17;24.60;88.00
49327;DHT22;35819;44.498;0.166;2022-10-17T17:33:44;24.60;88.40
49327;DHT22;35819;44.498;0.166;2022-10-17T17:36:17;24.50;88.90
49327;DHT22;35819;44.498;0.166;2022-10-17T17:38:44;24.40;89.30
49327;DHT22;35819;44.498;0.166;2022-10-17T17:41:11;24.40;90.00
49327;DHT22;35819;44.498;0.166;2022-10-17T17:43:38;24.30;90.20
49327;DHT22;35819;44.498;0.166;2022-10-17T17:46:04;24.20;90.50
49327;DHT22;35819;44.498;0.166;2022-10-17T17:48:30;24.20;90.80
49327;DHT22;35819;44.498;0.166;2022-10-17T17:50:56;24.10;91.20
49327;DHT22;35819;44.498;0.166;2022-10-17T17:53:22;23.90;91.60
49327;DHT22;35819;44.498;0.166;2022-10-17T17:56:06;23.80;91.90
49327;DHT22;35819;44.498;0.166;2022-10-17T17:58:34;23.70;92.20
49327;DHT22;35819;44.498;0.166;2022-10-17T18:01:07;23.50;92.60
49327;DHT22;35819;44.498;0.166;2022-10-17T18:03:33;23.40;93.00
49327;DHT22;35819;44.498;0.166;2022-10-17T18:05:59;23.40;93.20
49327;DHT22;35819;44.498;0.166;2022-10-17T18:08:24;23.30;93.60
49327;DHT22;35819;44.498;0.166;2022-10-17T18:10:50;23.20;93.80
49327;DHT22;35819;44.498;0.166;2022-10-17T18:13:19;23.20;94.00
49327;DHT22;35819;44.498;0.166;2022-10-17T18:15:45;23.10;94.30
49327;DHT22;35819;44.498;0.166;2022-10-17T18:18:11;23.10;94.50
49327;DHT22;35819;44.498;0.166;2022-10-17T18:23:59;23.00;95.00
49327;DHT22;35819;44.498;0.166;2022-10-17T18:26:25;23.00;95.50
49327;DHT22;35819;44.498;0.166;2022-10-17T18:28:51;22.90;95.60
49327;DHT22;35819;44.498;0.166;2022-10-17T18:31:19;22.80;95.90
49327;DHT22;35819;44.498;0.166;2022-10-17T18:33:52;22.80;96.20
49327;DHT22;35819;44.498;0.166;2022-10-17T18:36:18;22.70;96.50
49327;DHT22;35819;44.498;0.166;2022-10-17T18:38:44;22.60;96.70
49327;DHT22;35819;44.498;0.166;2022-10-17T18:41:13;22.60;96.90
49327;DHT22;35819;44.498;0.166;2022-10-17T18:43:41;22.70;97.10
49327;DHT22;35819;44.498;0.166;2022-10-17T18:46:11;22.60;97.30
49327;DHT22;35819;44.498;0.166;2022-10-17T18:48:38;22.60;97.40
49327;DHT22;35819;44.498;0.166;2022-10-17T18:51:05;22.60;97.50
49327;DHT22;35819;44.498;0.166;2022-10-17T18:53:31;22.60;97.70
49327;DHT22;35819;44.498;0.166;2022-10-17T18:55:59;22.70;97.80
49327;DHT22;35819;44.498;0.166;2022-10-17T18:58:25;22.70;97.90
49327;DHT22;35819;44.498;0.166;2022-10-17T19:00:52;22.60;98.00
49327;DHT22;35819;44.498;0.166;2022-10-17T19:03:20;22.60;98.10
49327;DHT22;35819;44.498;0.166;2022-10-17T19:05:46;22.60;98.20
49327;DHT22;35819;44.498;0.166;2022-10-17T19:08:13;22.60;98.40
49327;DHT22;35819;44.498;0.166;2022-10-17T19:10:40;22.60;98.40
49327;DHT22;35819;44.498;0.166;2022-10-17T19:13:07;22.60;98.50
49327;DHT22;35819;44.498;0.166;2022-10-17T19:15:33;22.50;98.70
49327;DHT22;35819;44.498;0.166;2022-10-17T19:17:59;22.50;99.10
49327;DHT22;35819;44.498;0.166;2022-10-17T19:20:25;22.40;99.10
49327;DHT22;35819;44.498;0.166;2022-10-17T19:22:51;22.40;99.20